Sheddsville, Vermont
Current Conditions -  °F | °C
As of 3:54 PM on Monday 24 Nov 2014 (Local Time) from KVSF Reporting Station
Scattered Clouds Scattered Clouds  
Wind Chill: 61°   Ceiling: Unl
Heat Index: 61°   Visibility: 10mi
Dew Point: 56°   Wind: 8mph
Humidity: 83%   Direction: 190°S
Pressure: 29.49"   Gusts: NA
Location:  43.4897°N, 72.4482°W
Report Text: KVSF 242054Z AUTO 19007KT 10SM SCT033 SCT042 16/13 A2949 RMK AO2 SLP990 T01610133 55013
Loading
Personal Weather Stations






























Interactive Weather Map New forecast layout! Learn more

10-Day Weather Forecast

Advertisements
Track Severe Weather on mobile